Time;durP1;ratioP1;P1;durP2;ratioP2;P2;SDS_P1;SDS_P2;PMS_P1;PMS_P2;Temp;Humidity;BMP_temperature;BMP_pressure;BME280_temperature;BME280_humidity;BME280_pressure;Samples;Min_cycle;Max_cycle;Signal;HPM_P1;HPM_P2
2023/09/17 00:00:32;;;;;;;4.72;4.35;;;24.60;68.90;25.50;100446.00;;;;5010009;28;20206;-52
2023/09/17 00:02:58;;;;;;;5.40;4.28;;;24.70;69.00;25.50;100448.00;;;;5009267;28;20191;-50
2023/09/17 00:05:24;;;;;;;5.03;4.55;;;24.60;68.90;25.50;100449.00;;;;4976332;28;20555;-51
2023/09/17 00:07:50;;;;;;;5.10;4.60;;;24.60;69.00;25.50;100436.00;;;;5009992;28;20544;-50
2023/09/17 00:10:16;;;;;;;4.60;4.20;;;24.60;69.10;25.40;100444.00;;;;4992407;28;20205;-50
2023/09/17 00:12:42;;;;;;;4.97;4.57;;;24.50;69.20;25.40;100454.00;;;;5008729;28;20710;-50
2023/09/17 00:15:08;;;;;;;4.88;4.57;;;24.60;69.40;25.40;100449.00;;;;5008489;28;20527;-50
2023/09/17 00:17:34;;;;;;;5.10;4.70;;;24.60;69.50;25.40;100452.00;;;;5008395;28;20194;-51
2023/09/17 00:20:00;;;;;;;4.80;4.50;;;24.50;69.40;25.40;100469.00;;;;4992740;28;20187;-51
2023/09/17 00:22:25;;;;;;;4.45;4.15;;;24.50;69.40;25.40;100460.00;;;;5008852;28;20230;-51
2023/09/17 00:24:51;;;;;;;5.00;4.60;;;24.60;69.30;25.40;100447.00;;;;5015750;28;20198;-52
2023/09/17 00:27:17;;;;;;;5.65;5.13;;;24.50;68.90;25.50;100501.00;;;;5028817;28;20190;-52
2023/09/17 00:29:42;;;;;;;5.63;5.13;;;24.30;70.10;25.40;100512.00;;;;4993144;28;20222;-52
2023/09/17 00:32:08;;;;;;;5.15;4.68;;;23.90;71.70;25.30;100511.00;;;;5011191;28;20337;-51
2023/09/17 00:34:34;;;;;;;5.32;4.90;;;23.80;72.40;25.30;100511.00;;;;4993967;28;20187;-50
2023/09/17 00:37:00;;;;;;;5.80;5.30;;;24.00;72.30;25.30;100513.00;;;;5011532;28;20611;-50
2023/09/17 00:39:27;;;;;;;5.43;5.03;;;23.80;73.40;25.30;100520.00;;;;5011932;28;20286;-52
2023/09/17 00:41:53;;;;;;;5.15;4.75;;;23.70;73.80;25.20;100495.00;;;;5025243;28;20186;-55
2023/09/17 00:44:19;;;;;;;5.13;4.72;;;23.80;73.60;25.20;100505.00;;;;5014478;28;20179;-51
2023/09/17 00:46:45;;;;;;;5.32;4.82;;;23.90;73.50;25.20;100511.00;;;;5009851;28;20191;-51
2023/09/17 00:49:13;;;;;;;4.60;4.30;;;24.00;73.40;25.30;100505.00;;;;5009945;28;20203;-52
2023/09/17 00:51:42;;;;;;;4.80;4.40;;;24.10;72.10;25.30;100515.00;;;;5010640;28;20214;-51
2023/09/17 00:54:08;;;;;;;4.88;4.47;;;24.20;71.70;25.30;100493.00;;;;4992606;28;20270;-51
2023/09/17 00:56:34;;;;;;;5.00;4.60;;;24.40;71.10;25.30;100502.00;;;;4959683;28;20274;-52
2023/09/17 00:58:59;;;;;;;4.88;4.47;;;24.40;70.60;25.30;100497.00;;;;4991573;28;20570;-50
2023/09/17 01:01:25;;;;;;;4.80;4.40;;;24.50;70.50;25.30;100498.00;;;;5007988;28;20195;-51
2023/09/17 01:03:51;;;;;;;5.05;4.57;;;24.50;70.30;25.30;100507.00;;;;5008669;28;20192;-50
2023/09/17 01:06:17;;;;;;;5.20;4.80;;;24.50;70.70;25.30;100506.00;;;;4991905;28;20207;-51
2023/09/17 01:08:43;;;;;;;6.47;4.53;;;24.50;70.20;25.40;100505.00;;;;4991517;28;20694;-52
2023/09/17 01:11:09;;;;;;;5.03;4.63;;;24.50;70.20;25.40;100499.00;;;;4975479;28;20657;-50
2023/09/17 01:13:41;;;;;;;5.18;4.57;;;24.60;70.10;25.40;100495.00;;;;5007748;28;20176;-50
2023/09/17 01:16:07;;;;;;;5.18;4.70;;;24.50;71.10;25.40;100486.00;;;;4977018;28;20183;-53
2023/09/17 01:18:34;;;;;;;5.32;4.93;;;24.60;70.70;25.40;100476.00;;;;5008687;28;20191;-51
2023/09/17 01:21:22;;;;;;;4.93;4.53;;;24.60;70.50;25.40;100485.00;;;;5008303;28;20219;-51
2023/09/17 01:24:26;;;;;;;5.13;4.72;;;24.60;70.40;25.40;100472.00;;;;5007472;28;20668;-51
2023/09/17 01:27:03;;;;;;;5.75;5.35;;;24.60;70.90;25.40;100474.00;;;;4993002;28;20227;-51
2023/09/17 01:29:35;;;;;;;5.53;5.13;;;24.60;70.70;25.40;100466.00;;;;5008678;28;20305;-52
2023/09/17 01:32:00;;;;;;;5.55;5.15;;;24.60;71.10;25.40;100478.00;;;;5007528;28;20179;-52
2023/09/17 01:34:27;;;;;;;6.20;5.70;;;24.50;71.50;25.50;100470.00;;;;5008799;28;20693;-51
2023/09/17 01:36:54;;;;;;;5.68;5.20;;;24.50;71.90;25.50;100475.00;;;;4991055;28;20168;-52
2023/09/17 01:39:22;;;;;;;5.50;5.10;;;24.50;71.90;25.50;100466.00;;;;4991012;28;20254;-52
2023/09/17 01:41:48;;;;;;;5.68;5.10;;;24.50;71.70;25.50;100458.00;;;;4974853;28;20179;-51
2023/09/17 01:44:13;;;;;;;5.78;5.28;;;24.50;71.90;25.40;100442.00;;;;4975132;28;20176;-50
2023/09/17 01:46:39;;;;;;;5.47;5.07;;;24.50;72.10;25.40;100450.00;;;;4991039;28;20200;-51
2023/09/17 01:49:05;;;;;;;6.10;5.60;;;24.40;72.20;25.40;100444.00;;;;4990610;28;20390;-50
2023/09/17 01:51:31;;;;;;;6.00;5.50;;;24.50;72.70;25.30;100439.00;;;;5008555;28;20271;-51
2023/09/17 01:53:57;;;;;;;6.10;5.60;;;24.40;72.70;25.30;100457.00;;;;5007046;28;20254;-51
2023/09/17 01:56:23;;;;;;;6.38;5.88;;;24.40;72.80;25.30;100445.00;;;;4990933;28;20237;-51
2023/09/17 01:58:48;;;;;;;6.00;5.40;;;24.40;72.90;25.30;100447.00;;;;5008386;28;20175;-51
2023/09/17 02:01:15;;;;;;;6.30;5.70;;;24.40;73.00;25.30;100439.00;;;;5008583;28;20183;-51
2023/09/17 02:03:40;;;;;;;5.55;5.15;;;24.40;73.10;25.20;100414.00;;;;5008205;28;20180;-51
2023/09/17 02:06:06;;;;;;;6.47;5.97;;;24.40;73.10;25.30;100442.00;;;;5007110;28;20532;-51
2023/09/17 02:08:32;;;;;;;5.55;5.15;;;24.40;73.00;25.10;100429.00;;;;5022277;28;20673;-50
2023/09/17 02:10:58;;;;;;;5.90;5.40;;;24.40;73.10;25.30;100430.00;;;;5011205;28;20253;-50
2023/09/17 02:13:24;;;;;;;6.15;5.50;;;24.40;73.30;25.20;100454.00;;;;5012726;28;20203;-50
2023/09/17 02:15:50;;;;;;;6.38;5.88;;;24.40;73.30;25.30;100450.00;;;;5012326;28;20616;-51
2023/09/17 02:18:15;;;;;;;6.50;5.90;;;24.40;74.00;25.30;100455.00;;;;5012061;28;20270;-51
2023/09/17 02:20:42;;;;;;;6.07;5.57;;;24.30;74.10;25.30;100465.00;;;;5010487;28;20736;-50
2023/09/17 02:23:10;;;;;;;5.50;5.10;;;24.20;74.90;25.30;100466.00;;;;5012177;28;20234;-50
2023/09/17 02:25:36;;;;;;;5.18;4.78;;;24.20;73.90;25.30;100462.00;;;;5010903;28;20198;-51
2023/09/17 02:28:02;;;;;;;5.35;4.95;;;24.40;74.00;25.20;100451.00;;;;5010830;28;20616;-51
2023/09/17 02:30:28;;;;;;;5.00;4.55;;;24.30;73.30;25.20;100448.00;;;;5012420;28;20203;-50
2023/09/17 02:32:54;;;;;;;6.00;5.50;;;24.40;73.60;25.00;100433.00;;;;5030927;28;20212;-50
2023/09/17 02:35:20;;;;;;;5.72;5.22;;;24.40;73.60;25.20;100441.00;;;;5017696;28;20175;-51
2023/09/17 02:37:45;;;;;;;5.28;4.88;;;24.40;73.70;25.20;100442.00;;;;5012690;28;20191;-50
2023/09/17 02:40:11;;;;;;;5.93;5.40;;;24.40;74.00;25.20;100434.00;;;;5013391;28;20309;-50
2023/09/17 02:42:40;;;;;;;5.47;5.07;;;24.40;74.40;25.20;100436.00;;;;5014402;28;20191;-51
2023/09/17 02:45:08;;;;;;;5.50;5.10;;;24.40;74.70;25.20;100426.00;;;;5005327;28;20267;-52
2023/09/17 02:47:34;;;;;;;5.88;5.38;;;24.40;74.00;25.20;100397.00;;;;5027861;28;20187;-51
2023/09/17 02:50:00;;;;;;;6.20;5.60;;;24.30;74.40;25.20;100403.00;;;;5000217;28;20243;-51
2023/09/17 02:52:26;;;;;;;6.18;5.68;;;24.40;74.70;25.20;100400.00;;;;5012064;28;20183;-51
2023/09/17 02:54:54;;;;;;;5.95;5.55;;;24.30;74.70;25.10;100404.00;;;;5011600;28;20544;-51
2023/09/17 02:57:20;;;;;;;6.43;5.88;;;24.30;74.70;25.10;100425.00;;;;5011622;28;20271;-52
2023/09/17 02:59:47;;;;;;;5.85;5.45;;;24.30;74.70;25.10;100415.00;;;;5011521;28;20290;-52
2023/09/17 03:02:12;;;;;;;6.45;5.85;;;24.30;74.70;25.10;100430.00;;;;5011231;28;20206;-52
2023/09/17 03:04:38;;;;;;;5.93;5.43;;;24.30;74.80;25.10;100424.00;;;;5012683;28;20627;-51
2023/09/17 03:07:04;;;;;;;6.53;6.03;;;24.30;74.70;25.10;100430.00;;;;5011123;28;20180;-51
2023/09/17 03:09:30;;;;;;;5.75;5.35;;;24.30;74.60;25.10;100423.00;;;;5012395;28;20211;-51
2023/09/17 03:11:56;;;;;;;5.68;5.28;;;24.20;74.80;25.10;100420.00;;;;5011460;28;20194;-51
2023/09/17 03:14:22;;;;;;;5.63;5.22;;;24.30;74.60;25.10;100415.00;;;;5011504;28;20703;-51
2023/09/17 03:16:48;;;;;;;6.07;5.57;;;24.30;74.70;25.10;100411.00;;;;5012518;28;20176;-52
2023/09/17 03:19:14;;;;;;;6.55;6.05;;;24.30;74.50;25.10;100420.00;;;;5011829;28;20216;-52
2023/09/17 03:21:40;;;;;;;6.43;5.85;;;24.20;74.40;25.10;100395.00;;;;5011873;28;20172;-52
2023/09/17 03:24:07;;;;;;;5.88;5.40;;;24.20;74.50;25.00;100409.00;;;;5012709;28;20333;-51
2023/09/17 03:26:33;;;;;;;5.90;5.40;;;24.20;74.30;25.00;100411.00;;;;5011231;28;20763;-51
2023/09/17 03:28:59;;;;;;;8.52;5.53;;;24.20;74.10;25.00;100421.00;;;;5012015;28;20207;-52
2023/09/17 03:31:25;;;;;;;7.68;5.32;;;24.20;75.10;25.00;100417.00;;;;5011992;28;20259;-52
2023/09/17 03:33:51;;;;;;;5.95;5.47;;;24.20;74.50;25.00;100415.00;;;;5011008;28;20183;-53
2023/09/17 03:36:17;;;;;;;5.28;4.85;;;24.20;74.50;25.00;100430.00;;;;5015926;28;20179;-53
2023/09/17 03:38:42;;;;;;;5.50;5.10;;;24.20;74.70;25.10;100431.00;;;;5016200;28;20179;-53
2023/09/17 03:41:08;;;;;;;5.57;4.80;;;24.20;74.50;25.00;100427.00;;;;5016716;28;20179;-52
2023/09/17 03:43:34;;;;;;;5.13;4.72;;;24.20;74.90;25.00;100417.00;;;;5007953;28;20180;-52
2023/09/17 03:46:03;;;;;;;5.18;4.78;;;24.20;74.30;25.00;100401.00;;;;5010894;28;20566;-52
2023/09/17 03:48:31;;;;;;;5.45;5.05;;;24.20;75.00;25.00;100398.00;;;;5010278;28;20212;-53
2023/09/17 03:50:58;;;;;;;5.35;4.95;;;24.20;75.10;24.90;100396.00;;;;5011904;28;20199;-52
2023/09/17 03:53:24;;;;;;;6.05;5.55;;;24.10;74.60;24.90;100394.00;;;;5011232;28;20190;-53
2023/09/17 03:55:50;;;;;;;5.65;5.13;;;24.20;74.30;24.90;100383.00;;;;5011772;28;20769;-52
2023/09/17 03:58:16;;;;;;;5.90;5.40;;;24.20;74.30;25.00;100404.00;;;;4978002;28;20183;-53
2023/09/17 04:00:44;;;;;;;5.38;4.97;;;24.20;74.30;25.00;100391.00;;;;5010632;28;20210;-53
2023/09/17 04:03:12;;;;;;;5.70;5.30;;;24.20;73.90;25.00;100399.00;;;;5011388;28;20609;-52
2023/09/17 04:05:38;;;;;;;5.55;5.13;;;24.00;75.50;25.00;100388.00;;;;5011385;28;20188;-52
2023/09/17 04:08:04;;;;;;;5.55;5.05;;;24.10;74.70;25.00;100389.00;;;;5009401;28;20434;-52
2023/09/17 04:10:30;;;;;;;5.63;5.13;;;24.10;74.90;25.00;100395.00;;;;5010035;28;20195;-52
2023/09/17 04:12:56;;;;;;;5.45;4.97;;;24.10;74.50;25.00;100390.00;;;;5010588;28;20176;-53
2023/09/17 04:15:22;;;;;;;5.38;4.97;;;24.20;73.90;25.00;100394.00;;;;5009726;28;20187;-53
2023/09/17 04:17:50;;;;;;;5.40;5.00;;;24.20;73.90;25.00;100389.00;;;;5010408;28;20186;-53
2023/09/17 04:20:18;;;;;;;5.57;5.07;;;24.10;74.20;25.00;100390.00;;;;5010798;28;20686;-53
2023/09/17 04:22:48;;;;;;;5.55;5.03;;;24.20;74.30;25.00;100392.00;;;;5011252;28;20188;-53
2023/09/17 04:25:15;;;;;;;6.07;4.80;;;24.20;73.90;25.00;100390.00;;;;5010881;28;20214;-53
2023/09/17 04:27:41;;;;;;;6.22;5.60;;;24.20;74.80;25.00;100382.00;;;;5010474;28;20178;-52
2023/09/17 04:30:08;;;;;;;5.78;5.05;;;24.00;75.70;25.00;100388.00;;;;5009960;28;20706;-52
2023/09/17 04:32:37;;;;;;;6.65;5.32;;;24.10;75.70;25.00;100386.00;;;;5010582;28;20234;-52
2023/09/17 04:35:07;;;;;;;7.07;5.32;;;24.10;75.10;25.00;100388.00;;;;5011714;28;20179;-52
2023/09/17 04:37:34;;;;;;;5.65;5.15;;;24.10;75.90;25.00;100396.00;;;;5031381;28;20262;-52
2023/09/17 04:40:00;;;;;;;5.53;5.03;;;24.10;75.00;25.00;100384.00;;;;5011904;28;20607;-52
2023/09/17 04:42:27;;;;;;;5.53;5.03;;;24.10;75.20;25.00;100396.00;;;;5010296;28;20183;-52
2023/09/17 04:44:52;;;;;;;6.63;5.05;;;24.00;75.50;25.00;100399.00;;;;5011772;28;20230;-54
2023/09/17 04:47:18;;;;;;;5.10;4.60;;;24.00;76.30;25.00;100388.00;;;;5011388;28;20858;-53
2023/09/17 04:49:44;;;;;;;5.85;5.10;;;24.00;75.10;25.00;100392.00;;;;5011829;28;20215;-58
2023/09/17 04:52:09;;;;;;;5.50;4.82;;;24.10;74.70;25.00;100410.00;;;;5030331;28;20184;-53
2023/09/17 04:54:38;;;;;;;8.05;5.60;;;24.10;75.40;25.00;100396.00;;;;5013546;28;20664;-52
2023/09/17 04:57:04;;;;;;;5.93;4.72;;;24.10;75.40;25.00;100404.00;;;;5010712;28;20178;-52
2023/09/17 04:59:30;;;;;;;5.15;4.75;;;24.10;74.90;25.00;100402.00;;;;5010225;28;20203;-53
2023/09/17 05:01:56;;;;;;;5.47;4.88;;;24.10;74.30;25.00;100409.00;;;;5010155;28;20210;-52
2023/09/17 05:04:24;;;;;;;4.85;4.30;;;24.10;75.10;25.00;100407.00;;;;5010229;28;20237;-53
2023/09/17 05:06:50;;;;;;;5.40;4.90;;;24.10;74.00;25.00;100406.00;;;;5009869;28;20784;-52
2023/09/17 05:09:16;;;;;;;5.68;4.80;;;24.10;74.50;25.00;100403.00;;;;5008315;28;20220;-53
2023/09/17 05:11:41;;;;;;;6.13;5.63;;;24.10;74.20;25.00;100411.00;;;;5010000;28;20187;-52
2023/09/17 05:14:07;;;;;;;5.60;5.10;;;24.10;75.90;25.00;100414.00;;;;5009712;28;20187;-53
2023/09/17 05:16:33;;;;;;;5.35;4.88;;;23.90;75.70;24.90;100415.00;;;;5009822;28;20180;-53
2023/09/17 05:18:59;;;;;;;6.85;5.05;;;24.00;75.00;24.90;100420.00;;;;5008443;28;20191;-52
2023/09/17 05:21:25;;;;;;;5.10;4.70;;;24.10;75.50;25.00;100415.00;;;;5009982;28;20563;-56
2023/09/17 05:23:50;;;;;;;4.93;4.45;;;24.10;75.00;24.90;100413.00;;;;5009835;28;20186;-53
2023/09/17 05:26:16;;;;;;;5.25;4.82;;;24.10;74.20;24.90;100424.00;;;;5009986;28;20184;-52
2023/09/17 05:28:42;;;;;;;4.90;4.50;;;24.10;74.60;24.90;100419.00;;;;5005328;28;20230;-52
2023/09/17 05:31:08;;;;;;;5.00;4.60;;;24.10;74.50;24.90;100428.00;;;;5008316;28;20191;-52
2023/09/17 05:33:33;;;;;;;5.18;4.75;;;24.10;73.70;24.90;100425.00;;;;5009398;28;20657;-52
2023/09/17 05:35:59;;;;;;;5.03;4.63;;;24.10;73.90;24.90;100429.00;;;;5009152;28;20183;-52
2023/09/17 05:38:26;;;;;;;5.40;5.00;;;24.10;73.70;24.90;100425.00;;;;5008399;28;20650;-52
2023/09/17 05:40:52;;;;;;;4.82;4.53;;;24.10;74.10;24.90;100424.00;;;;5007732;28;20693;-53
2023/09/17 05:43:18;;;;;;;5.25;4.85;;;24.10;74.30;24.90;100436.00;;;;5008561;28;20188;-53
2023/09/17 05:45:43;;;;;;;5.35;4.95;;;24.10;74.60;24.90;100437.00;;;;5003795;28;20176;-53
2023/09/17 05:48:09;;;;;;;5.15;4.65;;;24.00;75.00;24.90;100426.00;;;;5006617;28;20206;-54
2023/09/17 05:50:35;;;;;;;5.10;4.70;;;24.00;75.10;24.90;100431.00;;;;5008866;28;20206;-53
2023/09/17 05:53:00;;;;;;;4.80;4.30;;;24.00;73.90;24.90;100435.00;;;;5008823;28;20303;-53
2023/09/17 05:55:26;;;;;;;4.78;4.47;;;24.00;74.10;24.90;100440.00;;;;5008946;28;20171;-53
2023/09/17 05:57:52;;;;;;;4.90;4.40;;;23.90;74.40;24.90;100437.00;;;;5007997;28;20190;-53
2023/09/17 06:00:19;;;;;;;5.30;4.80;;;23.90;74.50;24.90;100435.00;;;;5004535;28;20202;-53
2023/09/17 06:02:45;;;;;;;4.43;4.13;;;23.90;74.50;24.90;100432.00;;;;5007304;28;20591;-53
2023/09/17 06:05:10;;;;;;;4.50;4.20;;;24.00;75.10;24.90;100439.00;;;;5006882;28;20183;-53
2023/09/17 06:07:36;;;;;;;5.30;4.32;;;24.00;74.30;24.80;100441.00;;;;5007797;28;20218;-52
2023/09/17 06:10:03;;;;;;;4.55;4.15;;;24.00;74.20;24.80;100433.00;;;;5008010;28;20249;-52
2023/09/17 06:12:30;;;;;;;5.13;4.63;;;23.90;74.00;24.80;100430.00;;;;5008697;28;20178;-53
2023/09/17 06:14:56;;;;;;;4.68;4.30;;;24.00;74.30;24.80;100380.00;;;;5008900;28;20180;-53
2023/09/17 06:17:21;;;;;;;4.53;4.22;;;24.00;74.10;24.80;100437.00;;;;5008817;28;20184;-52
2023/09/17 06:19:47;;;;;;;4.70;4.32;;;24.00;73.90;24.90;100442.00;;;;5008108;28;20226;-53
2023/09/17 06:22:13;;;;;;;4.70;4.30;;;23.90;74.10;24.80;100430.00;;;;5008992;28;20654;-52
2023/09/17 06:24:39;;;;;;;5.55;4.80;;;24.00;73.80;24.90;100432.00;;;;5009009;28;20184;-52
2023/09/17 06:27:04;;;;;;;4.72;4.32;;;23.90;74.20;24.80;100438.00;;;;5008542;28;20176;-53
2023/09/17 06:29:30;;;;;;;4.32;3.92;;;23.90;74.00;24.80;100438.00;;;;5008652;28;20584;-52
2023/09/17 06:31:56;;;;;;;4.90;4.50;;;23.90;74.10;24.80;100439.00;;;;5009286;28;20176;-52
2023/09/17 06:34:22;;;;;;;4.43;4.13;;;23.80;74.50;24.80;100439.00;;;;5009292;28;20187;-52
2023/09/17 06:36:48;;;;;;;5.00;4.60;;;23.80;74.70;24.80;100444.00;;;;5009215;28;20172;-52
2023/09/17 06:39:13;;;;;;;4.65;4.30;;;23.80;74.90;24.80;100444.00;;;;5024923;28;20199;-56
2023/09/17 06:41:39;;;;;;;5.47;4.97;;;23.80;74.40;24.70;100445.00;;;;5020117;28;20184;-54
2023/09/17 06:44:05;;;;;;;5.28;4.80;;;23.80;75.30;24.70;100452.00;;;;5009317;28;20183;-52
2023/09/17 06:46:31;;;;;;;5.13;4.65;;;23.80;75.20;24.70;100440.00;;;;5008712;28;20179;-52
2023/09/17 06:48:57;;;;;;;5.38;4.88;;;23.80;75.70;24.80;100450.00;;;;5007009;28;20231;-52
2023/09/17 06:51:22;;;;;;;5.03;4.63;;;23.80;75.70;24.70;100455.00;;;;5008035;28;20184;-52
2023/09/17 06:53:48;;;;;;;4.80;4.40;;;23.80;75.60;24.70;100447.00;;;;5012072;28;20171;-54
2023/09/17 06:56:14;;;;;;;5.55;4.45;;;23.80;75.80;24.70;100446.00;;;;5021046;28;20200;-52
2023/09/17 06:58:40;;;;;;;5.25;4.75;;;23.80;75.60;24.70;100455.00;;;;5011237;28;20716;-54
2023/09/17 07:01:05;;;;;;;5.20;4.70;;;23.80;75.80;24.70;100442.00;;;;5011963;28;20707;-53
2023/09/17 07:03:32;;;;;;;5.40;4.90;;;23.70;75.80;24.60;100458.00;;;;5012527;28;20246;-52
2023/09/17 07:05:58;;;;;;;5.15;4.65;;;23.70;75.70;24.60;100442.00;;;;5012562;28;20213;-53
2023/09/17 07:08:24;;;;;;;4.70;4.40;;;23.80;75.40;24.60;100436.00;;;;5011802;28;20282;-53
2023/09/17 07:10:50;;;;;;;5.25;4.80;;;23.80;75.30;24.60;100452.00;;;;5012186;28;20210;-53
2023/09/17 07:13:16;;;;;;;5.30;4.80;;;23.80;76.20;24.60;100436.00;;;;5011933;28;20183;-52
2023/09/17 07:15:44;;;;;;;4.93;4.43;;;23.60;76.10;24.60;100447.00;;;;5012383;28;20654;-53
2023/09/17 07:18:10;;;;;;;5.10;4.63;;;23.60;76.20;24.60;100450.00;;;;5012020;28;20191;-53
2023/09/17 07:20:36;;;;;;;6.65;4.95;;;23.70;76.20;24.60;100448.00;;;;5012233;28;20207;-51
2023/09/17 07:23:02;;;;;;;5.22;4.82;;;23.60;76.60;24.60;100447.00;;;;5010482;28;20538;-53
2023/09/17 07:25:28;;;;;;;5.22;4.82;;;23.60;76.60;24.60;100450.00;;;;5008163;28;20191;-53
2023/09/17 07:27:54;;;;;;;5.22;4.72;;;23.60;76.70;24.60;100463.00;;;;5010077;28;20199;-52
2023/09/17 07:30:20;;;;;;;6.57;5.05;;;23.70;76.00;24.50;100453.00;;;;5010764;28;20693;-53
2023/09/17 07:32:45;;;;;;;5.00;4.50;;;23.60;77.00;24.50;100453.00;;;;5014614;28;20230;-53
2023/09/17 07:35:11;;;;;;;4.93;4.53;;;23.60;76.90;24.50;100455.00;;;;5016660;28;20180;-53
2023/09/17 07:37:37;;;;;;;5.13;4.72;;;23.60;76.80;24.50;100458.00;;;;5012847;28;20172;-52
2023/09/17 07:40:05;;;;;;;5.43;4.75;;;23.60;76.90;24.50;100455.00;;;;5011728;28;20793;-53
2023/09/17 07:42:31;;;;;;;5.30;4.88;;;23.60;77.40;24.50;100459.00;;;;5010392;28;20209;-53
2023/09/17 07:44:57;;;;;;;5.40;5.00;;;23.60;77.10;24.40;100447.00;;;;5011655;28;20203;-53
2023/09/17 07:47:23;;;;;;;4.75;4.35;;;23.60;77.70;24.40;100455.00;;;;5011574;28;20187;-53
2023/09/17 07:49:48;;;;;;;4.90;4.50;;;23.60;77.20;24.40;100459.00;;;;5011750;28;20204;-52
2023/09/17 07:52:15;;;;;;;5.30;4.80;;;23.60;76.80;24.40;100455.00;;;;5011831;28;20188;-53
2023/09/17 07:54:41;;;;;;;5.28;4.78;;;23.60;77.40;24.40;100456.00;;;;5011711;28;20180;-53
2023/09/17 07:57:09;;;;;;;5.10;4.60;;;23.60;78.20;24.40;100464.00;;;;5011446;28;20171;-53
2023/09/17 07:59:35;;;;;;;5.55;5.05;;;23.60;77.80;24.40;100462.00;;;;5011649;28;20219;-51
2023/09/17 08:02:02;;;;;;;5.10;4.70;;;23.50;78.70;24.40;100467.00;;;;5011638;28;20192;-52
2023/09/17 08:04:29;;;;;;;4.90;4.50;;;23.50;78.40;24.40;100463.00;;;;5011571;28;20179;-53
2023/09/17 08:06:56;;;;;;;4.95;4.43;;;23.50;78.40;24.40;100465.00;;;;5010942;28;20544;-53
2023/09/17 08:09:23;;;;;;;5.28;4.88;;;23.50;78.40;24.40;100468.00;;;;4994124;28;20218;-53
2023/09/17 08:11:49;;;;;;;5.20;4.80;;;23.50;78.40;24.30;100478.00;;;;5011630;28;20175;-53
2023/09/17 08:14:14;;;;;;;4.75;4.38;;;23.50;78.50;24.30;100474.00;;;;5008576;28;20195;-54
2023/09/17 08:16:40;;;;;;;4.70;4.35;;;23.50;77.90;24.30;100478.00;;;;5010720;28;20167;-52
2023/09/17 08:19:06;;;;;;;5.03;4.63;;;23.50;77.90;24.30;100476.00;;;;5010551;28;20219;-52
2023/09/17 08:21:32;;;;;;;5.60;5.10;;;23.50;77.80;24.30;100480.00;;;;5011101;28;20283;-52
2023/09/17 08:23:59;;;;;;;6.38;5.10;;;23.50;79.10;24.40;100478.00;;;;5010580;28;20234;-53
2023/09/17 08:26:28;;;;;;;5.28;4.78;;;23.50;79.50;24.40;100464.00;;;;5010311;28;20260;-52
2023/09/17 08:29:00;;;;;;;6.38;5.10;;;23.50;79.40;24.40;100475.00;;;;5009336;28;20202;-51
2023/09/17 08:31:26;;;;;;;6.00;5.40;;;23.50;80.20;24.40;100476.00;;;;5010505;28;20267;-53
2023/09/17 08:33:53;;;;;;;6.47;5.38;;;23.40;81.10;24.40;100475.00;;;;5009542;28;20230;-53
2023/09/17 08:36:22;;;;;;;5.40;5.00;;;23.40;81.00;24.40;100473.00;;;;5007943;28;20215;-53
2023/09/17 08:38:54;;;;;;;5.38;4.88;;;23.30;81.10;24.30;100471.00;;;;5007664;28;20175;-53
2023/09/17 08:41:19;;;;;;;5.40;4.90;;;23.40;80.50;24.30;100473.00;;;;5010425;28;20187;-53
2023/09/17 08:43:52;;;;;;;5.38;4.97;;;23.40;80.40;24.40;100471.00;;;;5023288;28;20259;-53
2023/09/17 08:46:19;;;;;;;5.88;5.38;;;23.50;81.30;24.40;100477.00;;;;5019409;28;20178;-52
2023/09/17 08:48:45;;;;;;;5.10;4.70;;;23.40;80.90;24.30;100466.00;;;;5011152;28;20230;-53
2023/09/17 08:51:11;;;;;;;5.72;5.18;;;23.30;81.50;24.30;100476.00;;;;5012157;28;20771;-53
2023/09/17 08:53:40;;;;;;;5.57;5.00;;;23.20;81.30;24.30;100476.00;;;;4978297;28;20218;-53
2023/09/17 08:56:06;;;;;;;6.25;5.00;;;23.30;82.40;24.30;100470.00;;;;4995278;28;20159;-54
2023/09/17 08:58:40;;;;;;;5.20;4.80;;;23.30;82.10;24.30;100469.00;;;;5017462;28;20214;-53
2023/09/17 09:01:08;;;;;;;5.32;4.82;;;23.30;81.50;24.20;100456.00;;;;4987036;28;20210;-52
2023/09/17 09:03:35;;;;;;;5.30;4.80;;;23.30;81.00;24.20;100471.00;;;;5010104;28;20534;-53
2023/09/17 09:06:02;;;;;;;5.20;4.80;;;23.30;81.30;24.20;100476.00;;;;5010786;28;20190;-52
2023/09/17 09:08:28;;;;;;;5.30;4.90;;;23.20;81.30;24.20;100477.00;;;;5009216;28;20199;-53
2023/09/17 09:10:54;;;;;;;5.38;4.72;;;23.20;81.10;24.20;100480.00;;;;5008038;28;20234;-53
2023/09/17 09:13:20;;;;;;;5.35;4.80;;;23.20;81.30;24.20;100476.00;;;;4993202;28;20210;-53
2023/09/17 09:15:47;;;;;;;5.28;4.80;;;23.30;81.80;24.20;100474.00;;;;5009329;28;20554;-53
2023/09/17 09:18:13;;;;;;;5.75;5.18;;;23.30;81.40;24.20;100473.00;;;;5008626;28;20191;-52
2023/09/17 09:20:39;;;;;;;5.25;4.75;;;23.30;81.20;24.20;100464.00;;;;5009098;28;20203;-53
2023/09/17 09:23:05;;;;;;;5.68;5.18;;;23.40;80.90;24.30;100479.00;;;;4993041;28;20198;-52
2023/09/17 09:25:31;;;;;;;5.18;4.70;;;23.50;81.10;24.30;100479.00;;;;5010658;28;20187;-52
2023/09/17 09:28:01;;;;;;;5.78;5.28;;;23.40;81.10;24.30;100481.00;;;;5010063;28;20180;-52
2023/09/17 09:30:27;;;;;;;5.50;5.00;;;23.40;81.40;24.30;100471.00;;;;5010309;28;20290;-53
2023/09/17 09:32:53;;;;;;;5.50;5.00;;;23.40;81.50;24.30;100473.00;;;;5009048;28;20176;-52
2023/09/17 09:35:19;;;;;;;5.50;5.00;;;23.50;81.20;24.30;100477.00;;;;4992643;28;20186;-52
2023/09/17 09:37:45;;;;;;;5.05;4.65;;;23.50;80.10;24.30;100480.00;;;;4976099;28;20205;-52
2023/09/17 09:40:13;;;;;;;6.50;5.15;;;23.50;80.50;24.40;100480.00;;;;5010000;28;20204;-52
2023/09/17 09:42:38;;;;;;;5.78;5.03;;;23.60;80.10;24.40;100473.00;;;;5009263;28;20806;-52
2023/09/17 09:45:05;;;;;;;5.00;4.50;;;23.60;80.20;24.40;100476.00;;;;5009992;28;20188;-52
2023/09/17 09:47:31;;;;;;;4.93;4.53;;;23.60;80.20;24.50;100472.00;;;;5009749;28;20206;-52
2023/09/17 09:49:57;;;;;;;5.93;4.40;;;23.60;79.70;24.50;100477.00;;;;5009652;28;20717;-53
2023/09/17 09:52:24;;;;;;;5.13;4.63;;;23.70;79.70;24.50;100474.00;;;;5009459;28;20538;-53
2023/09/17 09:54:49;;;;;;;5.00;4.60;;;23.70;79.80;24.50;100479.00;;;;5009689;28;20532;-52
2023/09/17 09:57:16;;;;;;;4.80;4.32;;;23.70;79.60;24.60;100496.00;;;;5008349;28;20198;-53
2023/09/17 09:59:44;;;;;;;5.85;4.90;;;23.80;79.30;24.60;100491.00;;;;5009897;28;20203;-51
2023/09/17 10:02:11;;;;;;;5.05;4.65;;;23.80;79.20;24.60;100481.00;;;;5008804;28;20190;-52
2023/09/17 10:04:38;;;;;;;5.20;4.70;;;23.80;79.30;24.60;100472.00;;;;5008611;28;20681;-52
2023/09/17 10:07:04;;;;;;;5.18;4.68;;;23.80;79.00;24.60;100474.00;;;;5009508;28;20610;-52
2023/09/17 10:09:30;;;;;;;5.22;4.72;;;23.90;79.70;24.70;100481.00;;;;5008395;28;20204;-52
2023/09/17 10:11:57;;;;;;;5.00;4.60;;;23.90;79.10;24.70;100474.00;;;;5007339;28;20180;-51
2023/09/17 10:14:24;;;;;;;5.57;4.95;;;24.00;78.20;24.70;100470.00;;;;5002694;28;20191;-53
2023/09/17 10:16:50;;;;;;;5.25;4.70;;;24.00;78.20;24.80;100466.00;;;;5009496;28;20552;-53
2023/09/17 10:19:20;;;;;;;5.20;4.70;;;24.10;78.30;24.80;100467.00;;;;5007836;28;20226;-51
2023/09/17 10:21:47;;;;;;;5.07;4.57;;;24.10;77.30;24.80;100457.00;;;;5009430;28;20179;-52
2023/09/17 10:24:13;;;;;;;4.80;4.40;;;24.20;77.80;24.90;100454.00;;;;5009448;28;20553;-53
2023/09/17 10:26:42;;;;;;;6.70;4.40;;;24.20;77.00;24.90;100444.00;;;;4992072;28;20186;-52
2023/09/17 10:29:09;;;;;;;4.97;4.47;;;24.30;77.50;25.00;100456.00;;;;5007974;28;20770;-53
2023/09/17 10:31:36;;;;;;;4.78;4.22;;;24.30;77.10;25.00;100449.00;;;;5013115;28;20262;-52
2023/09/17 10:34:02;;;;;;;5.30;4.80;;;24.40;76.60;25.00;100449.00;;;;5012019;28;20179;-53
2023/09/17 10:36:29;;;;;;;4.80;4.40;;;24.40;75.60;25.10;100452.00;;;;4979974;28;20183;-53
2023/09/17 10:38:55;;;;;;;5.57;4.43;;;24.40;75.30;25.10;100446.00;;;;4979874;28;20267;-53
2023/09/17 10:41:22;;;;;;;4.40;4.10;;;24.40;75.80;25.10;100453.00;;;;4995656;28;20498;-52
2023/09/17 10:43:48;;;;;;;4.63;4.22;;;24.50;75.90;25.10;100454.00;;;;5013096;28;20285;-52